sensor_id;sensor_type;location;lat;lon;timestamp;temperature;humidity
796;DHT22;381;48.770;9.188;2023-12-28T00:01:49;10.60;73.70
796;DHT22;381;48.770;9.188;2023-12-28T00:06:52;10.70;73.00
796;DHT22;381;48.770;9.188;2023-12-28T00:11:56;10.70;74.50
796;DHT22;381;48.770;9.188;2023-12-28T00:16:59;10.70;74.50
796;DHT22;381;48.770;9.188;2023-12-28T00:22:01;10.80;75.70
796;DHT22;381;48.770;9.188;2023-12-28T00:27:05;10.70;76.50
796;DHT22;381;48.770;9.188;2023-12-28T00:32:07;10.60;75.50
796;DHT22;381;48.770;9.188;2023-12-28T00:37:10;10.50;75.00
796;DHT22;381;48.770;9.188;2023-12-28T00:42:14;10.50;74.60
796;DHT22;381;48.770;9.188;2023-12-28T00:47:16;10.50;75.50
796;DHT22;381;48.770;9.188;2023-12-28T00:52:19;10.30;75.80
796;DHT22;381;48.770;9.188;2023-12-28T00:57:22;10.30;76.40
796;DHT22;381;48.770;9.188;2023-12-28T01:02:25;10.20;75.70
796;DHT22;381;48.770;9.188;2023-12-28T01:07:27;10.20;78.20
796;DHT22;381;48.770;9.188;2023-12-28T01:12:31;10.10;76.50
796;DHT22;381;48.770;9.188;2023-12-28T01:17:34;10.10;77.40
796;DHT22;381;48.770;9.188;2023-12-28T01:22:36;10.10;79.10
796;DHT22;381;48.770;9.188;2023-12-28T01:27:40;10.00;80.00
796;DHT22;381;48.770;9.188;2023-12-28T01:32:43;9.90;83.20
796;DHT22;381;48.770;9.188;2023-12-28T01:37:45;9.90;81.40
796;DHT22;381;48.770;9.188;2023-12-28T01:42:49;9.80;81.00
796;DHT22;381;48.770;9.188;2023-12-28T01:47:53;9.60;81.40
796;DHT22;381;48.770;9.188;2023-12-28T01:52:56;9.40;81.90
796;DHT22;381;48.770;9.188;2023-12-28T01:58:02;9.40;82.20
796;DHT22;381;48.770;9.188;2023-12-28T02:03:06;9.20;82.30
796;DHT22;381;48.770;9.188;2023-12-28T02:08:08;9.20;82.10
796;DHT22;381;48.770;9.188;2023-12-28T02:13:13;9.30;80.50
796;DHT22;381;48.770;9.188;2023-12-28T02:18:19;9.30;82.20
796;DHT22;381;48.770;9.188;2023-12-28T02:23:24;9.30;81.70
796;DHT22;381;48.770;9.188;2023-12-28T02:28:28;9.30;81.90
796;DHT22;381;48.770;9.188;2023-12-28T02:33:36;9.30;82.50
796;DHT22;381;48.770;9.188;2023-12-28T02:38:41;9.20;82.40
796;DHT22;381;48.770;9.188;2023-12-28T02:43:47;9.20;82.50
796;DHT22;381;48.770;9.188;2023-12-28T02:48:50;9.10;83.40
796;DHT22;381;48.770;9.188;2023-12-28T02:53:53;9.00;83.90
796;DHT22;381;48.770;9.188;2023-12-28T02:58:58;8.90;84.70
796;DHT22;381;48.770;9.188;2023-12-28T03:04:00;8.90;85.70
796;DHT22;381;48.770;9.188;2023-12-28T03:09:02;8.70;85.40
796;DHT22;381;48.770;9.188;2023-12-28T03:14:07;8.60;85.90
796;DHT22;381;48.770;9.188;2023-12-28T03:19:09;8.50;87.20
796;DHT22;381;48.770;9.188;2023-12-28T03:24:12;8.40;87.80
796;DHT22;381;48.770;9.188;2023-12-28T03:29:16;8.30;88.20
796;DHT22;381;48.770;9.188;2023-12-28T03:34:18;8.20;88.90
796;DHT22;381;48.770;9.188;2023-12-28T03:39:20;8.10;89.00
796;DHT22;381;48.770;9.188;2023-12-28T03:44:24;8.00;89.30
796;DHT22;381;48.770;9.188;2023-12-28T03:49:26;8.00;89.20
796;DHT22;381;48.770;9.188;2023-12-28T03:54:29;8.00;89.20
796;DHT22;381;48.770;9.188;2023-12-28T03:59:33;8.00;89.60
796;DHT22;381;48.770;9.188;2023-12-28T04:04:35;8.10;89.40
796;DHT22;381;48.770;9.188;2023-12-28T04:09:37;8.20;90.40
796;DHT22;381;48.770;9.188;2023-12-28T04:14:41;8.30;90.50
796;DHT22;381;48.770;9.188;2023-12-28T04:19:43;8.40;90.70
796;DHT22;381;48.770;9.188;2023-12-28T04:24:46;8.50;90.50
796;DHT22;381;48.770;9.188;2023-12-28T04:29:50;8.50;90.60
796;DHT22;381;48.770;9.188;2023-12-28T04:34:52;8.50;90.10
796;DHT22;381;48.770;9.188;2023-12-28T04:39:55;8.50;89.60
796;DHT22;381;48.770;9.188;2023-12-28T04:44:58;8.60;89.00
796;DHT22;381;48.770;9.188;2023-12-28T04:50:01;8.60;89.50
796;DHT22;381;48.770;9.188;2023-12-28T04:55:04;8.80;89.70
796;DHT22;381;48.770;9.188;2023-12-28T05:00:09;8.90;89.60
796;DHT22;381;48.770;9.188;2023-12-28T05:05:12;9.10;89.20
796;DHT22;381;48.770;9.188;2023-12-28T05:10:15;9.20;89.30
796;DHT22;381;48.770;9.188;2023-12-28T05:15:19;9.20;89.00
796;DHT22;381;48.770;9.188;2023-12-28T05:20:21;9.30;88.40
796;DHT22;381;48.770;9.188;2023-12-28T05:25:23;9.20;87.30
796;DHT22;381;48.770;9.188;2023-12-28T05:30:27;9.20;87.00
796;DHT22;381;48.770;9.188;2023-12-28T05:35:29;9.30;86.90
796;DHT22;381;48.770;9.188;2023-12-28T05:40:32;9.40;87.20
796;DHT22;381;48.770;9.188;2023-12-28T05:45:35;9.50;87.40
796;DHT22;381;48.770;9.188;2023-12-28T05:50:38;9.70;88.90
796;DHT22;381;48.770;9.188;2023-12-28T05:55:41;9.80;89.80
796;DHT22;381;48.770;9.188;2023-12-28T06:00:45;9.80;88.20
796;DHT22;381;48.770;9.188;2023-12-28T06:05:49;9.90;88.70
796;DHT22;381;48.770;9.188;2023-12-28T06:10:51;10.00;86.60
796;DHT22;381;48.770;9.188;2023-12-28T06:15:55;10.10;87.40
796;DHT22;381;48.770;9.188;2023-12-28T06:20:57;10.30;87.60
796;DHT22;381;48.770;9.188;2023-12-28T06:26:04;10.30;87.90
796;DHT22;381;48.770;9.188;2023-12-28T06:31:09;10.40;88.20
796;DHT22;381;48.770;9.188;2023-12-28T06:36:11;10.50;89.80
796;DHT22;381;48.770;9.188;2023-12-28T06:41:14;10.50;89.40
796;DHT22;381;48.770;9.188;2023-12-28T06:46:18;10.60;89.30
796;DHT22;381;48.770;9.188;2023-12-28T06:51:21;10.60;89.30
796;DHT22;381;48.770;9.188;2023-12-28T06:56:23;10.60;89.90
796;DHT22;381;48.770;9.188;2023-12-28T07:01:27;10.70;90.30
796;DHT22;381;48.770;9.188;2023-12-28T07:06:29;10.80;90.40
796;DHT22;381;48.770;9.188;2023-12-28T07:11:32;10.90;90.70
796;DHT22;381;48.770;9.188;2023-12-28T07:16:36;10.90;90.80
796;DHT22;381;48.770;9.188;2023-12-28T07:21:38;10.90;90.90
796;DHT22;381;48.770;9.188;2023-12-28T07:26:40;11.00;90.90
796;DHT22;381;48.770;9.188;2023-12-28T07:31:44;11.00;91.10
796;DHT22;381;48.770;9.188;2023-12-28T07:36:46;11.00;91.50
796;DHT22;381;48.770;9.188;2023-12-28T07:41:49;11.00;91.70
796;DHT22;381;48.770;9.188;2023-12-28T07:46:52;10.90;91.90
796;DHT22;381;48.770;9.188;2023-12-28T07:51:55;11.00;92.20
796;DHT22;381;48.770;9.188;2023-12-28T07:56:57;10.90;92.40
796;DHT22;381;48.770;9.188;2023-12-28T08:02:01;10.90;92.60
796;DHT22;381;48.770;9.188;2023-12-28T08:07:03;10.90;93.00
796;DHT22;381;48.770;9.188;2023-12-28T08:12:08;10.80;93.30
796;DHT22;381;48.770;9.188;2023-12-28T08:17:11;10.80;93.30
796;DHT22;381;48.770;9.188;2023-12-28T08:22:14;10.70;93.60
796;DHT22;381;48.770;9.188;2023-12-28T08:27:16;10.70;93.90
796;DHT22;381;48.770;9.188;2023-12-28T08:32:20;10.70;94.20
796;DHT22;381;48.770;9.188;2023-12-28T08:37:22;10.70;94.50
796;DHT22;381;48.770;9.188;2023-12-28T08:42:24;10.70;94.60
796;DHT22;381;48.770;9.188;2023-12-28T08:47:28;10.70;94.70
796;DHT22;381;48.770;9.188;2023-12-28T08:52:30;10.70;94.90
796;DHT22;381;48.770;9.188;2023-12-28T08:57:33;10.70;95.00
796;DHT22;381;48.770;9.188;2023-12-28T09:02:36;10.70;95.00
796;DHT22;381;48.770;9.188;2023-12-28T09:07:39;10.70;95.10
796;DHT22;381;48.770;9.188;2023-12-28T09:12:44;10.80;95.20
796;DHT22;381;48.770;9.188;2023-12-28T09:17:48;10.80;95.30
796;DHT22;381;48.770;9.188;2023-12-28T09:22:51;10.90;95.40
796;DHT22;381;48.770;9.188;2023-12-28T09:27:57;10.90;95.10
796;DHT22;381;48.770;9.188;2023-12-28T09:33:00;10.90;95.20
796;DHT22;381;48.770;9.188;2023-12-28T09:38:03;11.00;95.70
796;DHT22;381;48.770;9.188;2023-12-28T09:43:13;11.00;95.90
796;DHT22;381;48.770;9.188;2023-12-28T09:48:19;11.10;96.50
796;DHT22;381;48.770;9.188;2023-12-28T09:53:22;11.20;96.70
796;DHT22;381;48.770;9.188;2023-12-28T09:58:25;11.30;96.80
796;DHT22;381;48.770;9.188;2023-12-28T10:03:30;11.40;96.70
796;DHT22;381;48.770;9.188;2023-12-28T10:08:32;11.50;96.70
796;DHT22;381;48.770;9.188;2023-12-28T10:13:37;11.60;96.30
796;DHT22;381;48.770;9.188;2023-12-28T10:18:42;11.70;96.40
796;DHT22;381;48.770;9.188;2023-12-28T10:23:44;11.70;96.00
796;DHT22;381;48.770;9.188;2023-12-28T10:28:47;11.70;95.30
796;DHT22;381;48.770;9.188;2023-12-28T10:33:50;11.70;94.70
796;DHT22;381;48.770;9.188;2023-12-28T10:38:54;11.80;94.90
796;DHT22;381;48.770;9.188;2023-12-28T10:44:02;11.80;95.10
796;DHT22;381;48.770;9.188;2023-12-28T10:49:10;11.80;95.50
796;DHT22;381;48.770;9.188;2023-12-28T10:54:23;11.80;95.50
796;DHT22;381;48.770;9.188;2023-12-28T10:59:39;11.80;95.50
796;DHT22;381;48.770;9.188;2023-12-28T11:04:48;11.90;95.80
796;DHT22;381;48.770;9.188;2023-12-28T11:09:51;12.00;95.80
796;DHT22;381;48.770;9.188;2023-12-28T11:14:56;12.00;96.30
796;DHT22;381;48.770;9.188;2023-12-28T11:20:00;12.00;96.50
796;DHT22;381;48.770;9.188;2023-12-28T11:25:06;12.10;96.10
796;DHT22;381;48.770;9.188;2023-12-28T11:30:11;12.10;96.60
796;DHT22;381;48.770;9.188;2023-12-28T11:35:16;12.10;96.90
796;DHT22;381;48.770;9.188;2023-12-28T11:40:19;12.10;97.20
796;DHT22;381;48.770;9.188;2023-12-28T11:45:23;12.10;97.60
796;DHT22;381;48.770;9.188;2023-12-28T11:50:27;12.10;98.00
796;DHT22;381;48.770;9.188;2023-12-28T11:55:30;12.00;98.00
796;DHT22;381;48.770;9.188;2023-12-28T12:00:32;12.00;98.10
796;DHT22;381;48.770;9.188;2023-12-28T12:05:36;12.00;98.30
796;DHT22;381;48.770;9.188;2023-12-28T12:10:38;12.00;98.60
796;DHT22;381;48.770;9.188;2023-12-28T12:15:40;12.00;98.80
796;DHT22;381;48.770;9.188;2023-12-28T12:20:44;12.00;98.70
796;DHT22;381;48.770;9.188;2023-12-28T12:25:46;12.10;98.60
796;DHT22;381;48.770;9.188;2023-12-28T12:30:50;12.10;98.50
796;DHT22;381;48.770;9.188;2023-12-28T12:35:55;12.10;98.50
796;DHT22;381;48.770;9.188;2023-12-28T12:40:58;12.10;98.80
796;DHT22;381;48.770;9.188;2023-12-28T12:46:01;12.10;98.90
796;DHT22;381;48.770;9.188;2023-12-28T12:51:04;12.10;98.70
796;DHT22;381;48.770;9.188;2023-12-28T12:56:07;12.10;99.00
796;DHT22;381;48.770;9.188;2023-12-28T13:01:10;12.10;99.20
796;DHT22;381;48.770;9.188;2023-12-28T13:06:14;12.10;99.50
796;DHT22;381;48.770;9.188;2023-12-28T13:11:16;12.10;99.50
796;DHT22;381;48.770;9.188;2023-12-28T13:16:19;12.10;99.40
796;DHT22;381;48.770;9.188;2023-12-28T13:21:22;12.20;99.50
796;DHT22;381;48.770;9.188;2023-12-28T13:26:25;12.20;99.60
796;DHT22;381;48.770;9.188;2023-12-28T13:31:27;12.20;99.80
796;DHT22;381;48.770;9.188;2023-12-28T13:36:31;12.20;99.80
796;DHT22;381;48.770;9.188;2023-12-28T13:41:35;12.20;99.90
796;DHT22;381;48.770;9.188;2023-12-28T13:46:37;12.20;99.90
796;DHT22;381;48.770;9.188;2023-12-28T13:51:41;12.20;99.90
796;DHT22;381;48.770;9.188;2023-12-28T13:56:43;12.20;99.90
796;DHT22;381;48.770;9.188;2023-12-28T14:01:46;12.30;99.90
796;DHT22;381;48.770;9.188;2023-12-28T14:06:50;12.30;99.90
796;DHT22;381;48.770;9.188;2023-12-28T14:11:52;12.30;99.90
796;DHT22;381;48.770;9.188;2023-12-28T14:16:54;12.30;99.90
796;DHT22;381;48.770;9.188;2023-12-28T14:21:59;12.30;99.90
796;DHT22;381;48.770;9.188;2023-12-28T14:27:02;12.30;99.90
796;DHT22;381;48.770;9.188;2023-12-28T14:32:05;12.20;99.90
796;DHT22;381;48.770;9.188;2023-12-28T14:37:09;12.10;99.90
796;DHT22;381;48.770;9.188;2023-12-28T14:42:11;12.10;99.90
796;DHT22;381;48.770;9.188;2023-12-28T14:47:14;12.10;99.90
796;DHT22;381;48.770;9.188;2023-12-28T14:52:18;12.00;99.90
796;DHT22;381;48.770;9.188;2023-12-28T14:57:22;12.00;99.90
796;DHT22;381;48.770;9.188;2023-12-28T15:02:24;12.00;99.90
796;DHT22;381;48.770;9.188;2023-12-28T15:07:28;12.00;99.90
796;DHT22;381;48.770;9.188;2023-12-28T15:12:31;12.00;99.90
796;DHT22;381;48.770;9.188;2023-12-28T15:17:33;12.00;99.90
796;DHT22;381;48.770;9.188;2023-12-28T15:22:38;12.00;99.90
796;DHT22;381;48.770;9.188;2023-12-28T15:27:40;12.00;99.90
796;DHT22;381;48.770;9.188;2023-12-28T15:32:43;11.90;99.90
796;DHT22;381;48.770;9.188;2023-12-28T15:37:47;11.90;99.90
796;DHT22;381;48.770;9.188;2023-12-28T15:42:51;11.90;99.90
796;DHT22;381;48.770;9.188;2023-12-28T15:47:54;11.90;99.90
796;DHT22;381;48.770;9.188;2023-12-28T15:52:58;11.90;99.90
796;DHT22;381;48.770;9.188;2023-12-28T15:58:01;11.90;99.90
796;DHT22;381;48.770;9.188;2023-12-28T16:03:03;11.90;99.90
796;DHT22;381;48.770;9.188;2023-12-28T16:08:07;11.90;99.90
796;DHT22;381;48.770;9.188;2023-12-28T16:13:10;11.90;99.90
796;DHT22;381;48.770;9.188;2023-12-28T16:18:13;11.90;99.90
796;DHT22;381;48.770;9.188;2023-12-28T16:23:17;11.90;99.90
796;DHT22;381;48.770;9.188;2023-12-28T16:28:20;11.80;99.90
796;DHT22;381;48.770;9.188;2023-12-28T16:33:22;11.80;99.90
796;DHT22;381;48.770;9.188;2023-12-28T16:38:26;11.70;99.90
796;DHT22;381;48.770;9.188;2023-12-28T16:43:29;11.70;99.90
796;DHT22;381;48.770;9.188;2023-12-28T16:48:32;11.70;99.90
796;DHT22;381;48.770;9.188;2023-12-28T16:53:35;11.70;99.90
796;DHT22;381;48.770;9.188;2023-12-28T16:58:38;11.70;99.90
796;DHT22;381;48.770;9.188;2023-12-28T17:03:40;11.70;99.90
796;DHT22;381;48.770;9.188;2023-12-28T17:08:44;11.70;99.90
796;DHT22;381;48.770;9.188;2023-12-28T17:13:47;11.70;99.90
796;DHT22;381;48.770;9.188;2023-12-28T17:18:50;11.70;99.90
796;DHT22;381;48.770;9.188;2023-12-28T17:23:54;11.70;99.90
796;DHT22;381;48.770;9.188;2023-12-28T17:29:02;11.70;99.90
796;DHT22;381;48.770;9.188;2023-12-28T17:34:06;11.60;99.90
796;DHT22;381;48.770;9.188;2023-12-28T17:39:11;11.60;99.90
796;DHT22;381;48.770;9.188;2023-12-28T17:44:15;11.60;99.90
796;DHT22;381;48.770;9.188;2023-12-28T17:49:23;11.50;99.90
796;DHT22;381;48.770;9.188;2023-12-28T17:54:27;11.50;99.90
796;DHT22;381;48.770;9.188;2023-12-28T17:59:30;11.50;99.90
796;DHT22;381;48.770;9.188;2023-12-28T18:04:32;11.50;99.90
796;DHT22;381;48.770;9.188;2023-12-28T18:09:36;11.50;99.90
796;DHT22;381;48.770;9.188;2023-12-28T18:14:41;11.50;99.90
796;DHT22;381;48.770;9.188;2023-12-28T18:19:44;11.50;99.90
796;DHT22;381;48.770;9.188;2023-12-28T18:24:48;11.50;99.90
796;DHT22;381;48.770;9.188;2023-12-28T18:29:51;11.50;99.90
796;DHT22;381;48.770;9.188;2023-12-28T18:34:54;11.50;99.90
796;DHT22;381;48.770;9.188;2023-12-28T18:39:58;11.50;99.90
796;DHT22;381;48.770;9.188;2023-12-28T18:45:00;11.50;99.90
796;DHT22;381;48.770;9.188;2023-12-28T18:50:03;11.50;99.90
796;DHT22;381;48.770;9.188;2023-12-28T18:55:07;11.50;99.90
796;DHT22;381;48.770;9.188;2023-12-28T19:00:11;11.40;99.90
796;DHT22;381;48.770;9.188;2023-12-28T19:05:13;11.50;99.90
796;DHT22;381;48.770;9.188;2023-12-28T19:10:20;11.40;99.90
796;DHT22;381;48.770;9.188;2023-12-28T19:15:22;11.40;99.90
796;DHT22;381;48.770;9.188;2023-12-28T19:20:25;11.40;99.90
796;DHT22;381;48.770;9.188;2023-12-28T19:25:28;11.40;99.90
796;DHT22;381;48.770;9.188;2023-12-28T19:30:32;11.40;99.90
796;DHT22;381;48.770;9.188;2023-12-28T19:35:34;11.40;99.90
796;DHT22;381;48.770;9.188;2023-12-28T19:40:38;11.40;99.90
796;DHT22;381;48.770;9.188;2023-12-28T19:45:40;11.40;99.90
796;DHT22;381;48.770;9.188;2023-12-28T19:50:43;11.40;99.90
796;DHT22;381;48.770;9.188;2023-12-28T19:55:46;11.40;99.90
796;DHT22;381;48.770;9.188;2023-12-28T20:00:49;11.30;99.90
796;DHT22;381;48.770;9.188;2023-12-28T20:05:52;11.30;99.90
796;DHT22;381;48.770;9.188;2023-12-28T20:10:57;11.40;99.90
796;DHT22;381;48.770;9.188;2023-12-28T20:15:59;11.40;99.90
796;DHT22;381;48.770;9.188;2023-12-28T20:21:01;11.40;99.90
796;DHT22;381;48.770;9.188;2023-12-28T20:26:06;11.40;99.90
796;DHT22;381;48.770;9.188;2023-12-28T20:31:08;11.40;99.90
796;DHT22;381;48.770;9.188;2023-12-28T20:36:11;11.40;99.90
796;DHT22;381;48.770;9.188;2023-12-28T20:41:14;11.40;99.90
796;DHT22;381;48.770;9.188;2023-12-28T20:46:19;11.40;99.90
796;DHT22;381;48.770;9.188;2023-12-28T20:51:21;11.30;99.90
796;DHT22;381;48.770;9.188;2023-12-28T20:56:25;11.30;99.90
796;DHT22;381;48.770;9.188;2023-12-28T21:01:27;11.30;99.90
796;DHT22;381;48.770;9.188;2023-12-28T21:06:30;11.30;99.90
796;DHT22;381;48.770;9.188;2023-12-28T21:11:33;11.30;99.90
796;DHT22;381;48.770;9.188;2023-12-28T21:16:36;11.30;99.90
796;DHT22;381;48.770;9.188;2023-12-28T21:21:38;11.30;99.90
796;DHT22;381;48.770;9.188;2023-12-28T21:26:42;11.30;99.90
796;DHT22;381;48.770;9.188;2023-12-28T21:31:45;11.30;99.90
796;DHT22;381;48.770;9.188;2023-12-28T21:36:47;11.30;99.90
796;DHT22;381;48.770;9.188;2023-12-28T21:41:51;11.30;99.90
796;DHT22;381;48.770;9.188;2023-12-28T21:46:53;11.30;99.90
796;DHT22;381;48.770;9.188;2023-12-28T21:51:56;11.30;99.90
796;DHT22;381;48.770;9.188;2023-12-28T21:57:00;11.30;99.90
796;DHT22;381;48.770;9.188;2023-12-28T22:02:03;11.40;99.90
796;DHT22;381;48.770;9.188;2023-12-28T22:07:07;11.40;99.90
796;DHT22;381;48.770;9.188;2023-12-28T22:12:11;11.40;99.90
796;DHT22;381;48.770;9.188;2023-12-28T22:17:13;11.30;99.90
796;DHT22;381;48.770;9.188;2023-12-28T22:22:16;11.30;99.90
796;DHT22;381;48.770;9.188;2023-12-28T22:27:19;11.20;99.90
796;DHT22;381;48.770;9.188;2023-12-28T22:32:22;11.20;99.90
796;DHT22;381;48.770;9.188;2023-12-28T22:37:24;11.10;99.90
796;DHT22;381;48.770;9.188;2023-12-28T22:42:28;11.10;99.90
796;DHT22;381;48.770;9.188;2023-12-28T22:47:30;11.10;99.90
796;DHT22;381;48.770;9.188;2023-12-28T22:52:33;11.00;99.90
796;DHT22;381;48.770;9.188;2023-12-28T22:57:37;11.00;99.90
796;DHT22;381;48.770;9.188;2023-12-28T23:02:39;11.10;99.90
796;DHT22;381;48.770;9.188;2023-12-28T23:07:41;11.10;99.90
796;DHT22;381;48.770;9.188;2023-12-28T23:12:45;11.10;99.90
796;DHT22;381;48.770;9.188;2023-12-28T23:17:48;11.10;99.90
796;DHT22;381;48.770;9.188;2023-12-28T23:22:50;11.20;99.90
796;DHT22;381;48.770;9.188;2023-12-28T23:27:54;11.20;99.90
796;DHT22;381;48.770;9.188;2023-12-28T23:32:58;11.20;99.90
796;DHT22;381;48.770;9.188;2023-12-28T23:38:01;11.20;99.90
796;DHT22;381;48.770;9.188;2023-12-28T23:43:05;11.10;99.90
796;DHT22;381;48.770;9.188;2023-12-28T23:48:08;11.00;99.90
796;DHT22;381;48.770;9.188;2023-12-28T23:53:10;11.10;99.90
796;DHT22;381;48.770;9.188;2023-12-28T23:58:14;11.10;99.90
